Portada
METAR-TAF:

METAR-TAF

Aeroports :

Crestview, Florida, Estats Units d'Amèrica

latitud: 30-46-20N, longitud: 086-31-12W, altitud: 65 m

Observació

L'informe es va fer fa 14 minuts, a les 02:53 UTC
Vent calma
Temperatura 4°C
Humitat 93%
Pressió 1019 hPa
Visibilitat: 16.1 km
Cel clar

METAR: KCEW 250253Z AUTO 00000KT 10SM CLR 04/03 A3008 RMK AO2 SLP184 T00440033 51016

Hora: 21:07 (03:07 UTC)


TAF: manca

Observacions i pronòstics meteorològics de més de 4000 aeroports (METAR i TAF).

Les estacions disponibles són els punts grocs i vermells al mapa.

Posi el ratolí al punt desitjat per veure el nom de l'estació.

Feu clic per veure les observacions i els pronòstics meteorològics.

Per canviar el mapa: feu clic els botons verds amb una creu de color negre per apropar; al botó verd amb un guió per allunyar la imatge; o en les fletxes verdes per a mapes adjacents.


METAR-TAF: